Time;durP1;ratioP1;P1;durP2;ratioP2;P2;SDS_P1;SDS_P2;PMS_P1;PMS_P2;Temp;Humidity;BMP_temperature;BMP_pressure;BME280_temperature;BME280_humidity;BME280_pressure;Samples;Min_cycle;Max_cycle;Signal;HPM_P1;HPM_P2
2022/04/06 00:00:37;;;;;;;1.55;1.45;;;;;;;12.26;46.80;98604.59;1788636;79;21136;-60
2022/04/06 00:03:03;;;;;;;1.80;1.70;;;;;;;12.25;46.81;98608.30;1782464;80;20978;-61
2022/04/06 00:05:32;;;;;;;1.75;1.65;;;;;;;12.25;46.81;98607.78;1782606;79;21006;-60
2022/04/06 00:07:58;;;;;;;1.50;1.40;;;;;;;12.25;46.82;98612.30;1782648;80;21596;-61
2022/04/06 00:10:25;;;;;;;2.02;1.70;;;;;;;12.25;46.81;98610.45;1782575;79;21053;-60
2022/04/06 00:12:52;;;;;;;1.70;1.50;;;;;;;12.24;46.82;98608.80;1782410;80;21085;-60
2022/04/06 00:15:20;;;;;;;1.77;1.67;;;;;;;12.24;46.82;98613.30;1782497;79;21010;-60
2022/04/06 00:17:48;;;;;;;1.45;1.32;;;;;;;12.24;46.85;98614.12;1799228;77;21042;-59
2022/04/06 00:20:14;;;;;;;1.50;1.40;;;;;;;12.23;46.84;98605.84;1814479;78;21030;-60
2022/04/06 00:22:42;;;;;;;1.50;1.40;;;;;;;12.24;46.87;98614.12;1814631;78;20971;-61
2022/04/06 00:25:09;;;;;;;1.80;1.70;;;;;;;12.22;46.90;98620.16;1814799;78;22048;-60
2022/04/06 00:27:37;;;;;;;1.50;1.40;;;;;;;12.23;46.88;98624.97;1814527;78;21469;-60
2022/04/06 00:30:06;;;;;;;1.50;1.40;;;;;;;12.22;46.90;98614.84;1814661;79;21097;-59
2022/04/06 00:32:32;;;;;;;2.52;1.50;;;;;;;12.22;46.90;98624.16;1814804;78;21061;-60
2022/04/06 00:37:44;;;;;;;1.80;1.70;;;;;;;12.22;46.91;98634.81;1782518;80;21050;-61
2022/04/06 00:40:11;;;;;;;1.62;1.52;;;;;;;12.22;46.92;98637.99;1782463;80;21045;-60
2022/04/06 00:42:38;;;;;;;1.52;1.42;;;;;;;12.22;46.96;98636.66;1782476;80;21013;-59
2022/04/06 00:45:07;;;;;;;1.35;1.25;;;;;;;12.20;46.94;98633.67;1782539;80;21568;-59
2022/04/06 00:47:33;;;;;;;1.60;1.42;;;;;;;12.20;46.96;98635.01;1782936;80;20998;-60
2022/04/06 00:50:00;;;;;;;1.50;1.40;;;;;;;12.20;46.97;98640.33;1783565;79;21172;-60
2022/04/06 00:52:27;;;;;;;1.77;1.45;;;;;;;12.20;46.97;98639.00;1790778;79;20967;-60
2022/04/06 00:54:54;;;;;;;1.55;1.45;;;;;;;12.19;47.00;98641.89;1808249;79;21026;-60
2022/04/06 00:57:21;;;;;;;1.60;1.50;;;;;;;12.20;46.99;98644.84;1814586;79;21057;-60
2022/04/06 00:59:47;;;;;;;1.50;1.40;;;;;;;12.20;47.00;98644.84;1814502;79;21526;-59
2022/04/06 01:02:14;;;;;;;1.57;1.47;;;;;;;12.19;47.00;98640.56;1814596;79;21133;-60
2022/04/06 01:04:41;;;;;;;1.62;1.50;;;;;;;12.20;46.99;98635.53;1814433;78;20986;-59
2022/04/06 01:07:09;;;;;;;1.60;1.50;;;;;;;12.20;47.01;98635.53;1807944;78;21057;-60
2022/04/06 01:09:36;;;;;;;1.57;1.45;;;;;;;12.20;47.02;98638.19;1782451;80;21033;-60
2022/04/06 01:12:06;;;;;;;1.67;1.55;;;;;;;12.18;47.05;98633.59;1782518;80;21505;-60
2022/04/06 01:14:33;;;;;;;1.72;1.40;;;;;;;12.18;47.02;98637.06;1782415;80;21115;-60
2022/04/06 01:17:03;;;;;;;1.52;1.42;;;;;;;12.18;47.02;98633.59;1800891;79;21030;-61
2022/04/06 01:19:36;;;;;;;1.77;1.40;;;;;;;12.18;47.03;98641.57;1817190;77;21018;-59
2022/04/06 01:22:10;;;;;;;2.00;1.70;;;;;;;12.18;47.07;98642.38;1859223;76;21053;-60
2022/04/06 01:24:38;;;;;;;1.72;1.55;;;;;;;12.16;47.07;98651.09;1832258;77;21095;-59
2022/04/06 01:27:05;;;;;;;1.77;1.60;;;;;;;12.16;47.08;98655.08;1793633;79;21217;-59
2022/04/06 01:29:32;;;;;;;1.75;1.65;;;;;;;12.16;47.08;98650.28;1793458;80;21009;-61
2022/04/06 01:32:08;;;;;;;1.87;1.70;;;;;;;12.15;47.10;98637.48;1793788;80;21049;-60
2022/04/06 01:34:35;;;;;;;1.60;1.50;;;;;;;12.16;47.10;98635.63;1793624;80;21053;-59
2022/04/06 01:37:06;;;;;;;1.62;1.52;;;;;;;12.14;47.10;98631.84;1793623;80;20966;-60
2022/04/06 01:39:34;;;;;;;1.55;1.45;;;;;;;12.14;47.12;98641.68;1793524;80;21122;-59
2022/04/06 01:42:03;;;;;;;1.90;1.55;;;;;;;12.14;47.15;98641.68;1794464;78;21012;-59
2022/04/06 01:44:31;;;;;;;1.70;1.60;;;;;;;12.13;47.12;98644.86;1793813;79;21244;-60
2022/04/06 01:46:58;;;;;;;2.08;1.80;;;;;;;12.14;47.15;98658.98;1793387;80;21076;-60
2022/04/06 01:52:13;;;;;;;1.60;1.50;;;;;;;12.12;47.16;98666.36;1711615;83;21143;-59
2022/04/06 01:54:43;;;;;;;1.80;1.70;;;;;;;12.11;47.15;98658.89;1711590;83;21620;-60
2022/04/06 01:57:10;;;;;;;1.50;1.40;;;;;;;12.12;47.17;98651.72;1743024;79;21005;-61
2022/04/06 01:59:38;;;;;;;1.50;1.40;;;;;;;12.10;47.18;98653.24;1819750;78;20998;-59
2022/04/06 02:02:05;;;;;;;1.67;1.57;;;;;;;12.10;47.18;98663.89;1826270;78;21519;-60
2022/04/06 02:04:32;;;;;;;1.67;1.57;;;;;;;12.10;47.20;98657.76;1825956;78;22228;-60
2022/04/06 02:06:59;;;;;;;1.55;1.45;;;;;;;12.10;47.20;98662.56;1826153;78;21016;-61
2022/04/06 02:09:25;;;;;;;1.70;1.60;;;;;;;12.10;47.20;98661.75;1826035;78;21070;-61
2022/04/06 02:11:54;;;;;;;1.87;1.67;;;;;;;12.08;47.20;98664.61;1826008;78;20973;-60
2022/04/06 02:14:21;;;;;;;1.70;1.60;;;;;;;12.09;47.20;98663.60;1826031;78;21020;-60
2022/04/06 02:16:49;;;;;;;1.98;1.77;;;;;;;12.09;47.21;98663.60;1794927;78;21466;-60
2022/04/06 02:19:16;;;;;;;2.10;1.90;;;;;;;12.08;47.22;98663.80;1825902;78;21001;-60
2022/04/06 02:21:44;;;;;;;1.60;1.50;;;;;;;12.08;47.22;98664.61;1816613;78;21014;-60
2022/04/06 02:24:12;;;;;;;1.80;1.67;;;;;;;12.08;47.22;98669.13;1814474;79;21053;-60
2022/04/06 02:26:39;;;;;;;1.40;1.30;;;;;;;12.08;47.23;98670.45;1814605;79;21513;-61
2022/04/06 02:29:06;;;;;;;1.75;1.65;;;;;;;12.07;47.22;98672.80;1814722;79;21845;-60
2022/04/06 02:31:32;;;;;;;2.20;1.67;;;;;;;12.07;47.23;98675.45;1814369;79;21110;-60
2022/04/06 02:35:38;;;;;;;1.50;1.40;;;;;;;12.10;47.25;98674.55;1870383;76;27981;-60
2022/04/06 02:38:05;;;;;;;1.70;1.60;;;;;;;12.05;47.23;98668.19;1826679;78;21552;-59
2022/04/06 02:40:33;;;;;;;1.42;1.32;;;;;;;12.06;47.24;98677.83;1826656;78;22055;-60
2022/04/06 02:43:00;;;;;;;1.65;1.55;;;;;;;12.07;47.25;98676.79;1826366;78;21528;-61
2022/04/06 02:45:26;;;;;;;1.57;1.47;;;;;;;12.05;47.26;98676.17;1826618;78;20994;-60
2022/04/06 02:47:53;;;;;;;1.50;1.40;;;;;;;12.05;47.28;98676.98;1826448;78;21035;-60
2022/04/06 02:50:21;;;;;;;1.80;1.70;;;;;;;12.05;47.29;98680.17;1804192;78;20976;-59
2022/04/06 02:52:48;;;;;;;2.98;2.00;;;;;;;12.05;47.29;98688.16;1793970;80;21239;-60
2022/04/06 02:55:15;;;;;;;2.40;2.20;;;;;;;12.04;47.30;98682.54;1794098;80;20970;-60
2022/04/06 02:57:43;;;;;;;1.65;1.55;;;;;;;12.04;47.31;98686.53;1793990;80;21576;-60
2022/04/06 03:00:11;;;;;;;1.72;1.62;;;;;;;12.02;47.31;98684.06;1797573;78;20994;-61
2022/04/06 03:02:39;;;;;;;1.57;1.47;;;;;;;12.02;47.31;98688.05;1826751;78;21021;-60
2022/04/06 03:05:07;;;;;;;1.60;1.50;;;;;;;12.03;47.32;98690.20;1822330;78;21230;-60
2022/04/06 03:07:34;;;;;;;1.80;1.70;;;;;;;12.02;47.33;98685.91;1813993;78;21067;-61
2022/04/06 03:10:01;;;;;;;1.90;1.70;;;;;;;12.00;47.32;98693.58;1814559;79;21079;-60
2022/04/06 03:12:29;;;;;;;1.72;1.62;;;;;;;12.00;47.33;98698.09;1814715;79;20990;-60
2022/04/06 03:14:57;;;;;;;1.90;1.80;;;;;;;11.99;47.34;98693.28;1811738;78;21041;-61
2022/04/06 03:17:24;;;;;;;1.70;1.60;;;;;;;11.99;47.35;98701.77;1794038;79;21290;-60
2022/04/06 03:19:52;;;;;;;1.65;1.55;;;;;;;11.98;47.35;98700.95;1793915;79;21077;-59
2022/04/06 03:22:18;;;;;;;1.87;1.50;;;;;;;11.98;47.37;98709.45;1793980;80;21088;-59
2022/04/06 03:24:47;;;;;;;1.82;1.70;;;;;;;11.98;47.36;98708.94;1821993;78;20994;-60
2022/04/06 03:27:14;;;;;;;1.80;1.70;;;;;;;11.97;47.36;98705.95;1826341;77;21001;-59
2022/04/06 03:29:40;;;;;;;2.00;1.80;;;;;;;11.97;47.40;98704.62;1826458;78;21842;-59
2022/04/06 03:32:09;;;;;;;1.80;1.70;;;;;;;11.97;47.41;98703.80;1826476;78;21126;-59
2022/04/06 03:34:36;;;;;;;1.87;1.72;;;;;;;11.96;47.41;98710.98;1821308;77;20990;-59
2022/04/06 03:37:03;;;;;;;2.20;1.87;;;;;;;11.96;47.42;98724.29;1815323;78;21517;-59
2022/04/06 03:39:30;;;;;;;1.57;1.47;;;;;;;11.95;47.38;98726.63;1815202;79;21006;-60
2022/04/06 03:41:58;;;;;;;2.17;2.00;;;;;;;11.95;47.42;98719.97;1813926;78;21119;-60
2022/04/06 03:44:24;;;;;;;1.80;1.70;;;;;;;11.94;47.40;98715.69;1815245;79;21006;-60
2022/04/06 03:46:51;;;;;;;2.08;1.80;;;;;;;11.94;47.43;98706.89;1814648;78;21036;-60
2022/04/06 03:49:18;;;;;;;1.70;1.60;;;;;;;11.93;47.43;98703.91;1814703;79;21013;-60
2022/04/06 03:51:45;;;;;;;1.65;1.55;;;;;;;11.93;47.46;98702.05;1814790;78;21561;-60
2022/04/06 03:54:12;;;;;;;1.72;1.60;;;;;;;11.93;47.46;98710.56;1814709;79;21067;-61
2022/04/06 03:56:38;;;;;;;1.70;1.60;;;;;;;11.92;47.47;98705.75;1814290;78;21045;-60
2022/04/06 03:59:06;;;;;;;1.77;1.55;;;;;;;11.92;47.48;98719.06;1814130;79;21451;-59
2022/04/06 04:01:35;;;;;;;1.72;1.62;;;;;;;11.91;47.49;98720.06;1814692;79;21018;-60
2022/04/06 04:04:03;;;;;;;1.77;1.65;;;;;;;11.93;47.50;98731.85;1814782;79;21077;-60
2022/04/06 04:06:30;;;;;;;1.50;1.40;;;;;;;11.93;47.52;98734.52;1814564;79;22156;-60
2022/04/06 04:08:58;;;;;;;2.45;1.70;;;;;;;11.92;47.52;98727.56;1814749;79;20978;-59
2022/04/06 04:11:26;;;;;;;2.17;1.92;;;;;;;11.92;47.53;98735.55;1811843;78;20987;-60
2022/04/06 04:13:53;;;;;;;1.90;1.67;;;;;;;11.91;47.52;98748.02;1802981;79;21017;-59
2022/04/06 04:16:20;;;;;;;1.77;1.67;;;;;;;11.93;47.54;98746.48;1782743;79;21568;-60
2022/04/06 04:18:47;;;;;;;2.00;1.60;;;;;;;11.92;47.54;98736.88;1782572;80;21128;-59
2022/04/06 04:21:34;;;;;;;2.00;1.80;;;;;;;11.93;47.55;98714.55;1782543;79;20986;-60
2022/04/06 04:24:03;;;;;;;2.42;2.20;;;;;;;11.94;47.55;98702.38;1782578;79;21038;-60
2022/04/06 04:26:30;;;;;;;1.75;1.65;;;;;;;11.93;47.58;98714.03;1782572;79;21045;-59
2022/04/06 04:28:56;;;;;;;1.92;1.70;;;;;;;11.93;47.60;98735.33;1782524;80;21498;-61
2022/04/06 04:31:23;;;;;;;1.95;1.80;;;;;;;11.93;47.59;98741.98;1783666;79;21200;-60
2022/04/06 04:33:49;;;;;;;1.67;1.57;;;;;;;11.92;47.62;98754.99;1782327;79;20994;-61
2022/04/06 04:36:17;;;;;;;1.57;1.47;;;;;;;11.93;47.64;98764.60;1793592;79;21068;-60
2022/04/06 04:38:43;;;;;;;2.20;1.82;;;;;;;11.94;47.65;98765.44;1793642;79;20966;-60
2022/04/06 04:41:11;;;;;;;1.70;1.60;;;;;;;11.94;47.65;98755.61;1793714;79;21567;-60
2022/04/06 04:43:38;;;;;;;1.75;1.65;;;;;;;11.94;47.66;98756.94;1793681;80;21217;-59
2022/04/06 04:46:04;;;;;;;2.02;1.70;;;;;;;11.94;47.66;98756.94;1793531;79;21528;-59
2022/04/06 04:48:31;;;;;;;1.80;1.70;;;;;;;11.96;47.67;98760.73;1794667;78;21076;-59
2022/04/06 04:50:58;;;;;;;1.72;1.62;;;;;;;11.95;47.71;98762.55;1793522;79;20981;-61
2022/04/06 04:53:25;;;;;;;1.62;1.52;;;;;;;11.96;47.70;98766.06;1793679;79;21064;-60
2022/04/06 04:55:53;;;;;;;1.80;1.70;;;;;;;11.95;47.71;98770.55;1793513;80;21318;-60
2022/04/06 04:58:20;;;;;;;1.85;1.65;;;;;;;11.96;47.73;98781.52;1793626;80;21038;-60
2022/04/06 05:00:47;;;;;;;2.10;1.90;;;;;;;11.96;47.73;98777.52;1805495;78;21017;-61
2022/04/06 05:03:15;;;;;;;2.40;2.00;;;;;;;11.96;47.75;98780.70;1826131;78;21504;-59
2022/04/06 05:05:43;;;;;;;1.65;1.55;;;;;;;11.97;47.76;98789.79;1825104;78;21006;-60
2022/04/06 05:08:09;;;;;;;1.50;1.40;;;;;;;11.97;47.77;98788.46;1826186;78;21128;-60
2022/04/06 05:10:38;;;;;;;2.42;2.00;;;;;;;11.98;47.78;98778.66;1826141;78;20962;-61
2022/04/06 05:13:06;;;;;;;1.72;1.62;;;;;;;11.97;47.79;98768.50;1826070;78;21485;-60
2022/04/06 05:15:34;;;;;;;1.75;1.65;;;;;;;11.98;47.79;98770.16;1826042;78;21005;-60
2022/04/06 05:18:01;;;;;;;1.90;1.80;;;;;;;11.98;47.82;98767.49;1826189;78;21602;-60
2022/04/06 05:20:29;;;;;;;1.92;1.80;;;;;;;11.97;47.80;98764.50;1826184;78;21083;-60
2022/04/06 05:22:55;;;;;;;2.08;1.87;;;;;;;11.99;47.84;98780.28;1809032;78;21014;-60
2022/04/06 05:25:22;;;;;;;2.20;2.00;;;;;;;11.99;47.84;98778.46;1793663;80;21049;-59
2022/04/06 05:27:52;;;;;;;2.30;1.70;;;;;;;12.01;47.85;98762.27;1793504;79;20990;-61
2022/04/06 05:30:20;;;;;;;1.80;1.70;;;;;;;12.02;47.85;98766.58;1793583;80;21065;-60
2022/04/06 05:32:50;;;;;;;2.20;1.65;;;;;;;12.04;47.86;98773.05;1793493;80;21224;-60
2022/04/06 05:35:16;;;;;;;1.70;1.60;;;;;;;12.04;47.89;98783.69;1793499;78;21037;-60
2022/04/06 05:37:45;;;;;;;1.98;1.80;;;;;;;12.05;47.88;98785.31;1793588;79;21001;-60
2022/04/06 05:40:14;;;;;;;1.98;1.80;;;;;;;12.05;47.88;98781.32;1794551;78;21256;-61
2022/04/06 05:42:41;;;;;;;2.33;1.95;;;;;;;12.06;47.89;98780.31;1793891;80;21072;-61
2022/04/06 05:45:09;;;;;;;2.10;1.90;;;;;;;12.07;47.88;98773.47;1793570;79;21203;-60
2022/04/06 05:47:36;;;;;;;2.35;1.87;;;;;;;12.08;47.90;98783.08;1793502;79;21068;-60
2022/04/06 05:50:06;;;;;;;1.95;1.72;;;;;;;12.09;47.92;98789.21;1793691;80;21470;-60
2022/04/06 05:52:32;;;;;;;2.10;1.90;;;;;;;12.09;47.92;98777.23;1793567;79;20997;-60
2022/04/06 05:54:59;;;;;;;1.98;1.77;;;;;;;12.10;47.92;98776.22;1793473;80;21017;-60
2022/04/06 05:57:25;;;;;;;1.90;1.67;;;;;;;12.10;47.93;98786.36;1794743;78;21239;-61
2022/04/06 05:59:52;;;;;;;1.80;1.70;;;;;;;12.12;47.94;98786.97;1793411;79;21037;-60
2022/04/06 06:02:23;;;;;;;2.67;2.12;;;;;;;12.12;47.95;98781.64;1825998;78;21576;-61
2022/04/06 06:04:47;;;;;;;3.22;2.00;;;;;;;12.14;47.97;98776.13;1824867;78;21057;-60
2022/04/06 06:07:14;;;;;;;2.17;1.72;;;;;;;12.14;47.97;98764.96;1826225;78;20986;-60
2022/04/06 06:09:41;;;;;;;2.00;1.82;;;;;;;12.15;47.96;98759.95;1826015;78;21213;-60
2022/04/06 06:12:09;;;;;;;2.00;1.80;;;;;;;12.17;47.98;98753.11;1826089;78;20994;-59
2022/04/06 06:14:36;;;;;;;2.42;2.00;;;;;;;12.18;48.01;98780.02;1825403;78;21026;-62
2022/04/06 06:17:03;;;;;;;1.90;1.80;;;;;;;12.18;47.99;98777.36;1826071;78;21103;-60
2022/04/06 06:19:30;;;;;;;2.30;2.02;;;;;;;12.20;48.01;98784.11;1826388;78;22018;-60
2022/04/06 06:21:58;;;;;;;1.90;1.72;;;;;;;12.22;48.01;98784.44;1825982;78;20997;-61
2022/04/06 06:24:25;;;;;;;1.85;1.67;;;;;;;12.23;48.03;98792.72;1826158;78;21470;-60
2022/04/06 06:26:53;;;;;;;2.47;2.08;;;;;;;12.24;48.04;98790.38;1825949;78;21187;-61
2022/04/06 06:29:22;;;;;;;3.05;2.00;;;;;;;12.23;48.03;98788.23;1826078;78;21052;-60
2022/04/06 06:31:48;;;;;;;2.27;2.08;;;;;;;12.25;48.03;98780.05;1796692;78;21560;-60
2022/04/06 06:34:15;;;;;;;4.03;2.10;;;;;;;12.26;48.02;98772.36;1793685;78;21821;-60
2022/04/06 06:36:42;;;;;;;2.30;2.10;;;;;;;12.27;48.02;98766.02;1782879;78;21082;-60
2022/04/06 06:39:09;;;;;;;2.25;2.05;;;;;;;12.28;48.06;98756.99;1782529;79;20986;-61
2022/04/06 06:41:36;;;;;;;2.15;1.95;;;;;;;12.29;48.05;98785.28;1782426;80;21532;-60
2022/04/06 06:44:03;;;;;;;2.22;1.90;;;;;;;12.29;48.05;98771.44;1782327;80;21073;-59
2022/04/06 06:46:31;;;;;;;2.40;2.20;;;;;;;12.29;48.07;98778.10;1782405;80;21275;-60
2022/04/06 06:49:03;;;;;;;2.58;2.37;;;;;;;12.30;48.07;98780.24;1783433;79;20987;-60
2022/04/06 06:51:31;;;;;;;2.30;2.10;;;;;;;12.32;48.06;98787.03;1782616;79;21037;-60
2022/04/06 06:53:58;;;;;;;2.25;2.05;;;;;;;12.31;48.07;98784.05;1782392;80;20993;-60
2022/04/06 06:56:25;;;;;;;2.75;2.55;;;;;;;12.32;48.08;98779.53;1782434;80;20994;-60
2022/04/06 06:58:52;;;;;;;2.27;2.08;;;;;;;12.32;48.09;98779.05;1782417;79;21103;-60
2022/04/06 07:01:19;;;;;;;2.70;2.05;;;;;;;12.34;48.09;98768.16;1801298;79;20963;-60
2022/04/06 07:03:46;;;;;;;2.15;1.95;;;;;;;12.34;48.09;98771.66;1813524;79;21002;-61
2022/04/06 07:06:12;;;;;;;2.50;2.10;;;;;;;12.35;48.08;98770.62;1814644;79;21506;-60
2022/04/06 07:08:38;;;;;;;2.37;2.17;;;;;;;12.36;48.09;98774.95;1814663;78;20990;-60
2022/04/06 07:11:06;;;;;;;2.90;2.40;;;;;;;12.38;48.09;98778.71;1814695;79;21105;-60
2022/04/06 07:13:35;;;;;;;3.05;2.30;;;;;;;12.40;48.11;98770.03;1814383;79;20990;-60
2022/04/06 07:16:05;;;;;;;3.47;2.30;;;;;;;12.42;48.11;98770.65;1814394;78;21022;-60
2022/04/06 07:18:33;;;;;;;2.37;2.12;;;;;;;12.44;48.10;98771.27;1814880;78;21006;-61
2022/04/06 07:21:01;;;;;;;2.17;1.98;;;;;;;12.48;48.11;98775.67;1813541;78;21014;-59
2022/04/06 07:23:28;;;;;;;2.30;2.10;;;;;;;12.50;48.09;98779.77;1814610;79;21336;-61
2022/04/06 07:25:55;;;;;;;2.83;2.52;;;;;;;12.51;48.09;98765.41;1814540;78;20963;-60
2022/04/06 07:28:23;;;;;;;2.75;2.55;;;;;;;12.53;48.07;98766.02;1813749;78;21065;-59
2022/04/06 07:30:49;;;;;;;2.35;2.15;;;;;;;12.56;48.07;98781.61;1808004;78;21037;-58
2022/04/06 07:33:16;;;;;;;2.77;2.58;;;;;;;12.59;48.08;98779.04;1815044;78;21049;-60
2022/04/06 07:35:43;;;;;;;2.45;2.10;;;;;;;12.60;48.07;98767.38;1819224;78;21319;-59
2022/04/06 07:38:12;;;;;;;2.45;2.20;;;;;;;12.62;48.07;98784.48;1819386;78;21592;-61
2022/04/06 07:40:40;;;;;;;3.05;2.40;;;;;;;12.63;48.05;98768.27;1793606;79;21017;-59
2022/04/06 07:43:08;;;;;;;3.17;2.35;;;;;;;12.65;48.06;98765.41;1776136;80;21162;-60
2022/04/06 07:45:35;;;;;;;2.55;2.35;;;;;;;12.66;48.05;98767.06;1793644;80;21028;-59
2022/04/06 07:48:03;;;;;;;2.42;2.12;;;;;;;12.67;48.04;98760.70;1793635;80;22073;-61
2022/04/06 07:50:31;;;;;;;2.42;2.22;;;;;;;12.68;48.08;98749.84;1793648;80;21041;-60
2022/04/06 07:52:57;;;;;;;2.58;2.27;;;;;;;12.70;48.09;98750.45;1793547;79;21049;-60
2022/04/06 07:55:25;;;;;;;2.20;2.00;;;;;;;12.71;48.08;98753.44;1794704;78;21513;-61
2022/04/06 07:57:51;;;;;;;2.60;2.40;;;;;;;12.75;48.09;98761.32;1793588;80;21069;-61
2022/04/06 08:00:19;;;;;;;2.30;2.10;;;;;;;12.77;48.12;98753.94;1799233;78;21227;-60
2022/04/06 08:02:47;;;;;;;2.30;2.10;;;;;;;12.82;48.10;98753.83;1826050;78;20978;-60
2022/04/06 08:05:13;;;;;;;2.45;2.20;;;;;;;12.86;48.19;98752.38;1826140;78;21033;-59
2022/04/06 08:07:41;;;;;;;2.47;2.27;;;;;;;12.88;48.22;98759.13;1826214;78;20962;-60
2022/04/06 08:10:11;;;;;;;2.20;2.00;;;;;;;12.91;48.23;98746.73;1826108;78;21040;-59
2022/04/06 08:12:37;;;;;;;2.90;2.45;;;;;;;12.94;48.25;98755.67;1825165;78;21913;-59
2022/04/06 08:15:08;;;;;;;2.35;2.10;;;;;;;12.98;48.29;98757.41;1825934;78;21438;-60
2022/04/06 08:17:40;;;;;;;2.67;2.35;;;;;;;13.01;48.29;98758.31;1826440;78;21065;-59
2022/04/06 08:20:11;;;;;;;2.72;2.27;;;;;;;13.03;48.24;98755.44;1826265;78;21009;-59
2022/04/06 08:22:42;;;;;;;2.65;2.08;;;;;;;13.05;48.27;98759.53;1826356;78;20990;-59
2022/04/06 08:25:09;;;;;;;2.22;2.00;;;;;;;13.07;48.25;98759.33;1826064;78;21587;-60
2022/04/06 08:27:40;;;;;;;2.40;2.12;;;;;;;13.09;48.27;98751.94;1826133;78;20979;-60
2022/04/06 08:30:09;;;;;;;2.47;2.27;;;;;;;13.10;48.24;98757.59;1824921;78;21525;-61
2022/04/06 08:32:37;;;;;;;2.37;2.17;;;;;;;13.12;48.24;98775.01;1826106;78;21053;-60
2022/04/06 08:35:04;;;;;;;2.33;2.10;;;;;;;13.14;48.25;98764.95;1825944;78;20993;-60
2022/04/06 08:37:32;;;;;;;2.90;2.60;;;;;;;13.16;48.22;98758.08;1812005;78;21276;-60
2022/04/06 08:39:59;;;;;;;3.08;2.40;;;;;;;13.17;48.24;98760.55;1814527;79;20987;-60
2022/04/06 08:42:27;;;;;;;2.60;2.00;;;;;;;13.20;48.20;98754.48;1814571;79;20971;-59
2022/04/06 08:45:12;;;;;;;2.40;2.20;;;;;;;13.23;48.24;98737.55;1805279;79;21193;-61
2022/04/06 08:47:56;;;;;;;2.33;2.12;;;;;;;13.25;48.21;98761.33;1784385;79;21026;-59
2022/04/06 08:50:42;;;;;;;2.40;2.17;;;;;;;13.27;48.19;98752.11;1782658;80;21061;-60
2022/04/06 08:53:27;;;;;;;2.40;2.17;;;;;;;13.29;48.21;98760.72;1782598;80;21010;-60
2022/04/06 08:56:15;;;;;;;2.50;2.30;;;;;;;13.31;48.22;98746.69;1782391;80;21513;-61
2022/04/06 08:59:00;;;;;;;2.67;2.00;;;;;;;13.33;48.27;98745.15;1782551;80;21287;-60
2022/04/06 09:01:44;;;;;;;1.92;1.75;;;;;;;13.35;48.22;98742.56;1806967;79;21518;-60
2022/04/06 09:04:11;;;;;;;2.20;2.00;;;;;;;13.39;48.27;98720.81;1813632;78;21914;-60
2022/04/06 09:06:44;;;;;;;2.15;1.98;;;;;;;13.41;48.29;98732.09;1814698;78;21018;-59
2022/04/06 09:09:11;;;;;;;2.45;2.25;;;;;;;13.44;48.30;98748.47;1814550;79;21561;-61
2022/04/06 09:11:43;;;;;;;2.35;2.15;;;;;;;13.48;48.20;98751.54;1814587;79;21033;-60
2022/04/06 09:14:10;;;;;;;3.02;2.30;;;;;;;13.52;48.21;98738.92;1814292;78;21006;-60
2022/04/06 09:16:37;;;;;;;2.62;2.25;;;;;;;13.55;48.14;98722.98;1814568;79;21252;-61
2022/04/06 09:19:11;;;;;;;2.47;2.12;;;;;;;13.56;48.13;98740.12;1814380;79;20967;-60
2022/04/06 09:21:46;;;;;;;2.50;2.30;;;;;;;13.60;48.05;98741.86;1813369;78;21558;-61
2022/04/06 09:24:18;;;;;;;2.67;2.35;;;;;;;13.62;48.01;98737.63;1814619;79;21458;-60
2022/04/06 09:26:58;;;;;;;2.95;2.50;;;;;;;13.64;47.94;98734.25;1814638;79;21006;-60
2022/04/06 09:29:24;;;;;;;2.92;2.33;;;;;;;13.65;47.94;98731.88;1814070;78;21148;-61
2022/04/06 09:31:51;;;;;;;3.20;2.50;;;;;;;13.66;47.91;98738.86;1814352;79;21206;-59
2022/04/06 09:34:23;;;;;;;2.55;2.35;;;;;;;13.65;47.94;98739.36;1814500;78;20998;-60
2022/04/06 09:36:56;;;;;;;2.52;2.10;;;;;;;13.67;47.93;98742.63;1813192;78;21482;-60
2022/04/06 09:39:19;;;;;;;2.75;2.27;;;;;;;13.69;47.87;98743.76;1814168;78;21022;-59
2022/04/06 09:42:00;;;;;;;2.92;2.35;;;;;;;13.68;47.91;98745.62;1812071;79;21443;-62
2022/04/06 09:50:22;;;;;;;2.93;2.37;;;;;;;13.70;47.89;98740.07;1803020;79;21572;-61
2022/04/06 09:52:51;;;;;;;3.17;2.30;;;;;;;13.71;47.86;98737.20;1802764;79;21493;-60
2022/04/06 09:55:19;;;;;;;2.58;2.37;;;;;;;13.71;47.88;98751.03;1789392;79;21137;-61
2022/04/06 09:57:51;;;;;;;3.08;2.77;;;;;;;13.73;47.89;98747.64;1782435;80;20998;-60
2022/04/06 10:00:20;;;;;;;2.53;2.33;;;;;;;13.74;47.91;98743.42;1787994;79;21470;-60
2022/04/06 10:03:00;;;;;;;2.67;2.47;;;;;;;13.77;47.91;98748.84;1814443;79;20974;-61
2022/04/06 10:05:27;;;;;;;2.33;2.10;;;;;;;13.80;47.90;98763.11;1811388;79;21017;-60
2022/04/06 10:07:55;;;;;;;2.62;2.42;;;;;;;13.82;47.81;98746.36;1803273;79;21198;-59
2022/04/06 10:10:23;;;;;;;3.72;2.35;;;;;;;13.86;47.80;98762.25;1814422;79;20995;-60
2022/04/06 10:12:51;;;;;;;2.92;2.60;;;;;;;13.90;47.77;98777.34;1813395;79;20986;-60
2022/04/06 10:15:18;;;;;;;2.42;2.22;;;;;;;13.93;47.76;98763.05;1814525;79;21034;-60
2022/04/06 10:17:46;;;;;;;2.50;2.12;;;;;;;13.97;47.72;98755.44;1814643;78;20991;-60
2022/04/06 10:20:31;;;;;;;2.35;2.10;;;;;;;14.00;47.66;98768.34;1814476;78;21235;-60
2022/04/06 10:23:39;;;;;;;2.62;2.40;;;;;;;14.03;47.63;98768.45;1814371;78;21002;-61
2022/04/06 10:26:26;;;;;;;2.87;2.42;;;;;;;14.05;47.57;98756.50;1813503;78;20995;-60
2022/04/06 10:28:52;;;;;;;2.42;2.20;;;;;;;14.07;47.54;98769.66;1813605;78;21022;-60
2022/04/06 10:31:22;;;;;;;2.47;2.00;;;;;;;14.09;47.49;98771.59;1814598;78;21069;-59
2022/04/06 10:33:49;;;;;;;2.42;2.22;;;;;;;14.10;47.50;98787.90;1814695;78;21170;-61
2022/04/06 10:36:26;;;;;;;2.35;2.15;;;;;;;14.11;47.43;98782.88;1814238;78;21066;-58
2022/04/06 10:39:10;;;;;;;2.50;2.30;;;;;;;14.13;47.43;98792.83;1814495;79;21049;-60
2022/04/06 10:41:41;;;;;;;2.98;2.17;;;;;;;14.13;47.42;98790.96;1814559;79;20979;-61
2022/04/06 10:44:08;;;;;;;2.65;2.45;;;;;;;14.14;47.40;98799.30;1840079;77;21013;-59
2022/04/06 10:46:40;;;;;;;2.42;2.22;;;;;;;14.14;47.41;98803.83;1804410;77;21173;-61
2022/04/06 10:49:15;;;;;;;2.47;2.17;;;;;;;14.15;47.41;98806.78;1809171;79;21054;-60
2022/04/06 10:51:48;;;;;;;2.10;1.90;;;;;;;14.15;47.39;98806.78;1814498;78;21080;-60
2022/04/06 10:54:19;;;;;;;;;;;;;;;14.16;47.42;98813.77;1817135;79;21493;-60
2022/04/06 10:56:57;;;;;;;2.58;1.80;;;;;;;14.16;47.38;98813.77;1814611;79;20164;-60
2022/04/06 10:59:28;;;;;;;2.05;1.85;;;;;;;14.14;47.41;98813.98;1778140;79;21066;-60
2022/04/06 11:02:26;;;;;;;2.15;1.92;;;;;;;14.15;47.40;98823.62;1813729;78;21041;-61
2022/04/06 11:04:52;;;;;;;1.92;1.77;;;;;;;14.16;47.43;98815.11;1814759;78;21010;-60
2022/04/06 11:10:06;;;;;;;2.00;1.80;;;;;;;14.15;47.42;98813.46;1814678;78;21498;-61
2022/04/06 11:10:07;;;;;;;2.58;2.37;;;;;;;14.17;47.45;98815.40;1796170;78;21054;-60
2022/04/06 11:12:35;;;;;;;2.02;1.82;;;;;;;14.16;47.46;98816.45;1745643;79;20990;-61
2022/04/06 11:15:09;;;;;;;2.60;2.40;;;;;;;14.19;47.47;98821.87;1814533;78;20987;-59
2022/04/06 11:17:42;;;;;;;2.75;2.10;;;;;;;14.21;47.47;98837.16;1814786;79;21069;-61
2022/04/06 11:20:18;;;;;;;1.72;1.60;;;;;;;14.22;47.42;98820.92;1813523;78;21049;-60
2022/04/06 11:22:54;;;;;;;2.70;2.50;;;;;;;14.23;47.42;98821.21;1814675;78;21491;-60
2022/04/06 11:25:30;;;;;;;2.45;2.10;;;;;;;14.24;47.40;98834.89;1814618;79;21083;-60
2022/04/06 11:28:11;;;;;;;1.85;1.70;;;;;;;14.26;47.36;98825.33;1814541;78;21010;-61
2022/04/06 11:30:43;;;;;;;1.80;1.70;;;;;;;14.26;47.36;98828.81;1814990;79;20998;-60
2022/04/06 11:33:10;;;;;;;1.80;1.70;;;;;;;14.28;47.33;98837.95;1814808;79;21025;-60
2022/04/06 11:35:54;;;;;;;1.85;1.75;;;;;;;14.28;47.34;98839.29;1813382;79;21045;-61
2022/04/06 11:38:21;;;;;;;1.90;1.80;;;;;;;14.27;47.35;98833.63;1814610;78;21216;-60
2022/04/06 11:40:47;;;;;;;1.70;1.60;;;;;;;14.28;47.35;98839.29;1814732;79;21474;-60
2022/04/06 11:43:13;;;;;;;2.05;1.80;;;;;;;14.27;47.38;98841.13;1814667;79;21045;-60
2022/04/06 11:45:44;;;;;;;2.27;2.08;;;;;;;14.28;47.37;98838.77;1814692;79;21498;-60
2022/04/06 11:48:15;;;;;;;2.55;2.35;;;;;;;14.29;47.34;98842.25;1803436;79;21044;-60
2022/04/06 11:50:44;;;;;;;2.08;1.87;;;;;;;14.28;47.35;98836.09;1814732;79;21186;-59
2022/04/06 11:53:18;;;;;;;2.20;2.00;;;;;;;14.28;47.38;98828.60;1804452;79;21103;-61
2022/04/06 11:55:51;;;;;;;1.90;1.70;;;;;;;14.29;47.37;98839.58;1799226;79;21001;-61